sensor_id;sensor_type;location;lat;lon;timestamp;P1;durP1;ratioP1;P2;durP2;ratioP2
43682;SDS011;29285;52.128;21.060;2023-04-24T00:04:33;7.80;;;6.40;;
43682;SDS011;29285;52.128;21.060;2023-04-24T00:09:34;8.40;;;6.80;;
43682;SDS011;29285;52.128;21.060;2023-04-24T00:14:35;9.10;;;6.50;;
43682;SDS011;29285;52.128;21.060;2023-04-24T00:19:37;9.10;;;7.20;;
43682;SDS011;29285;52.128;21.060;2023-04-24T00:24:38;8.90;;;7.70;;
43682;SDS011;29285;52.128;21.060;2023-04-24T00:29:39;8.90;;;7.10;;
43682;SDS011;29285;52.128;21.060;2023-04-24T00:34:41;9.90;;;7.00;;
43682;SDS011;29285;52.128;21.060;2023-04-24T00:39:42;13.30;;;7.40;;
43682;SDS011;29285;52.128;21.060;2023-04-24T00:44:43;9.30;;;6.90;;
43682;SDS011;29285;52.128;21.060;2023-04-24T00:49:45;9.80;;;6.80;;
43682;SDS011;29285;52.128;21.060;2023-04-24T00:54:46;12.60;;;7.40;;
43682;SDS011;29285;52.128;21.060;2023-04-24T00:59:47;8.40;;;7.40;;
43682;SDS011;29285;52.128;21.060;2023-04-24T01:04:49;7.80;;;6.30;;
43682;SDS011;29285;52.128;21.060;2023-04-24T01:09:51;7.90;;;7.00;;
43682;SDS011;29285;52.128;21.060;2023-04-24T01:14:53;8.00;;;6.80;;
43682;SDS011;29285;52.128;21.060;2023-04-24T01:19:55;8.30;;;7.30;;
43682;SDS011;29285;52.128;21.060;2023-04-24T01:24:57;10.50;;;7.40;;
43682;SDS011;29285;52.128;21.060;2023-04-24T01:29:59;9.80;;;7.50;;
43682;SDS011;29285;52.128;21.060;2023-04-24T01:35:00;10.00;;;6.40;;
43682;SDS011;29285;52.128;21.060;2023-04-24T01:40:03;10.90;;;7.10;;
43682;SDS011;29285;52.128;21.060;2023-04-24T01:45:07;11.20;;;7.30;;
43682;SDS011;29285;52.128;21.060;2023-04-24T01:50:11;8.00;;;7.10;;
43682;SDS011;29285;52.128;21.060;2023-04-24T01:55:12;9.00;;;7.00;;
43682;SDS011;29285;52.128;21.060;2023-04-24T02:00:13;8.90;;;7.80;;
43682;SDS011;29285;52.128;21.060;2023-04-24T04:52:32;9.20;;;7.90;;
43682;SDS011;29285;52.128;21.060;2023-04-24T04:57:33;11.00;;;7.50;;
43682;SDS011;29285;52.128;21.060;2023-04-24T05:02:35;10.30;;;8.00;;
43682;SDS011;29285;52.128;21.060;2023-04-24T05:07:36;9.70;;;7.20;;
43682;SDS011;29285;52.128;21.060;2023-04-24T05:12:37;10.90;;;7.80;;
43682;SDS011;29285;52.128;21.060;2023-04-24T05:17:38;8.80;;;7.70;;
43682;SDS011;29285;52.128;21.060;2023-04-24T05:22:40;12.30;;;8.50;;
43682;SDS011;29285;52.128;21.060;2023-04-24T05:27:41;9.80;;;8.40;;
43682;SDS011;29285;52.128;21.060;2023-04-24T05:32:42;10.90;;;7.50;;
43682;SDS011;29285;52.128;21.060;2023-04-24T05:37:44;10.50;;;8.00;;
43682;SDS011;29285;52.128;21.060;2023-04-24T05:42:45;12.40;;;8.30;;
43682;SDS011;29285;52.128;21.060;2023-04-24T05:47:46;14.40;;;8.30;;
43682;SDS011;29285;52.128;21.060;2023-04-24T05:52:47;9.80;;;8.90;;
43682;SDS011;29285;52.128;21.060;2023-04-24T05:57:48;15.20;;;9.00;;
43682;SDS011;29285;52.128;21.060;2023-04-24T06:02:49;9.70;;;8.60;;
43682;SDS011;29285;52.128;21.060;2023-04-24T06:07:50;19.90;;;9.70;;
43682;SDS011;29285;52.128;21.060;2023-04-24T06:12:52;13.80;;;9.60;;
43682;SDS011;29285;52.128;21.060;2023-04-24T06:17:53;11.50;;;9.10;;
43682;SDS011;29285;52.128;21.060;2023-04-24T06:22:54;14.50;;;9.80;;
43682;SDS011;29285;52.128;21.060;2023-04-24T06:27:55;12.30;;;9.80;;
43682;SDS011;29285;52.128;21.060;2023-04-24T06:32:57;14.60;;;10.40;;
43682;SDS011;29285;52.128;21.060;2023-04-24T06:37:58;15.30;;;10.50;;
43682;SDS011;29285;52.128;21.060;2023-04-24T06:42:59;13.70;;;10.10;;
43682;SDS011;29285;52.128;21.060;2023-04-24T06:48:03;12.30;;;10.80;;
43682;SDS011;29285;52.128;21.060;2023-04-24T06:53:04;12.60;;;10.50;;
43682;SDS011;29285;52.128;21.060;2023-04-24T06:58:05;11.40;;;9.50;;
43682;SDS011;29285;52.128;21.060;2023-04-24T07:03:07;16.30;;;11.30;;
43682;SDS011;29285;52.128;21.060;2023-04-24T07:08:08;12.50;;;9.60;;
43682;SDS011;29285;52.128;21.060;2023-04-24T07:13:09;13.30;;;9.80;;
43682;SDS011;29285;52.128;21.060;2023-04-24T07:18:10;14.70;;;10.30;;
43682;SDS011;29285;52.128;21.060;2023-04-24T07:23:11;12.90;;;9.70;;
43682;SDS011;29285;52.128;21.060;2023-04-24T07:28:12;12.50;;;8.40;;
43682;SDS011;29285;52.128;21.060;2023-04-24T07:33:14;10.90;;;9.80;;
43682;SDS011;29285;52.128;21.060;2023-04-24T07:38:15;9.60;;;8.30;;
43682;SDS011;29285;52.128;21.060;2023-04-24T07:43:16;11.20;;;9.00;;
43682;SDS011;29285;52.128;21.060;2023-04-24T07:48:17;16.00;;;9.40;;
43682;SDS011;29285;52.128;21.060;2023-04-24T07:53:19;12.90;;;9.20;;
43682;SDS011;29285;52.128;21.060;2023-04-24T07:58:20;13.80;;;9.70;;
43682;SDS011;29285;52.128;21.060;2023-04-24T08:03:21;11.50;;;10.30;;
43682;SDS011;29285;52.128;21.060;2023-04-24T08:08:23;12.80;;;9.20;;
43682;SDS011;29285;52.128;21.060;2023-04-24T08:13:24;9.30;;;8.40;;
43682;SDS011;29285;52.128;21.060;2023-04-24T08:18:25;11.90;;;9.10;;
43682;SDS011;29285;52.128;21.060;2023-04-24T08:23:27;12.30;;;9.00;;
43682;SDS011;29285;52.128;21.060;2023-04-24T08:28:29;11.10;;;8.30;;
43682;SDS011;29285;52.128;21.060;2023-04-24T08:33:30;11.60;;;8.50;;
43682;SDS011;29285;52.128;21.060;2023-04-24T08:38:34;9.20;;;7.80;;
43682;SDS011;29285;52.128;21.060;2023-04-24T08:43:35;11.10;;;9.20;;
43682;SDS011;29285;52.128;21.060;2023-04-24T08:48:38;9.30;;;7.90;;
43682;SDS011;29285;52.128;21.060;2023-04-24T08:53:43;13.30;;;7.60;;
43682;SDS011;29285;52.128;21.060;2023-04-24T08:58:44;8.40;;;7.50;;
43682;SDS011;29285;52.128;21.060;2023-04-24T09:03:49;9.50;;;7.90;;
43682;SDS011;29285;52.128;21.060;2023-04-24T09:08:50;11.60;;;7.30;;
43682;SDS011;29285;52.128;21.060;2023-04-24T09:13:54;8.50;;;6.70;;
43682;SDS011;29285;52.128;21.060;2023-04-24T09:18:56;9.70;;;7.10;;
43682;SDS011;29285;52.128;21.060;2023-04-24T09:24:02;11.60;;;7.80;;
43682;SDS011;29285;52.128;21.060;2023-04-24T09:29:05;12.00;;;8.20;;
43682;SDS011;29285;52.128;21.060;2023-04-24T09:34:06;10.40;;;9.00;;
43682;SDS011;29285;52.128;21.060;2023-04-24T09:39:09;9.50;;;8.50;;
43682;SDS011;29285;52.128;21.060;2023-04-24T09:44:21;9.60;;;8.00;;
43682;SDS011;29285;52.128;21.060;2023-04-24T09:49:24;11.90;;;8.10;;
43682;SDS011;29285;52.128;21.060;2023-04-24T09:54:25;14.60;;;8.20;;
43682;SDS011;29285;52.128;21.060;2023-04-24T09:59:27;11.00;;;8.30;;
43682;SDS011;29285;52.128;21.060;2023-04-24T10:04:28;9.00;;;8.10;;
43682;SDS011;29285;52.128;21.060;2023-04-24T10:09:29;7.70;;;7.00;;
43682;SDS011;29285;52.128;21.060;2023-04-24T10:14:30;11.40;;;7.60;;
43682;SDS011;29285;52.128;21.060;2023-04-24T10:19:32;8.80;;;7.20;;
43682;SDS011;29285;52.128;21.060;2023-04-24T10:24:34;9.60;;;7.90;;
43682;SDS011;29285;52.128;21.060;2023-04-24T10:29:37;8.20;;;7.40;;
43682;SDS011;29285;52.128;21.060;2023-04-24T10:34:40;9.20;;;7.90;;
43682;SDS011;29285;52.128;21.060;2023-04-24T10:39:42;8.20;;;7.40;;
43682;SDS011;29285;52.128;21.060;2023-04-24T10:44:48;9.80;;;7.00;;
43682;SDS011;29285;52.128;21.060;2023-04-24T10:49:50;7.50;;;6.90;;
43682;SDS011;29285;52.128;21.060;2023-04-24T10:54:52;9.50;;;6.60;;
43682;SDS011;29285;52.128;21.060;2023-04-24T11:00:13;8.70;;;6.70;;
43682;SDS011;29285;52.128;21.060;2023-04-24T11:05:21;15.60;;;6.40;;
43682;SDS011;29285;52.128;21.060;2023-04-24T11:10:26;6.90;;;6.20;;
43682;SDS011;29285;52.128;21.060;2023-04-24T11:15:27;6.20;;;5.70;;
43682;SDS011;29285;52.128;21.060;2023-04-24T11:20:30;8.50;;;6.80;;
43682;SDS011;29285;52.128;21.060;2023-04-24T11:25:32;9.70;;;7.20;;
43682;SDS011;29285;52.128;21.060;2023-04-24T11:30:33;9.80;;;6.50;;
43682;SDS011;29285;52.128;21.060;2023-04-24T11:35:39;7.10;;;6.30;;
43682;SDS011;29285;52.128;21.060;2023-04-24T11:40:41;9.60;;;6.20;;
43682;SDS011;29285;52.128;21.060;2023-04-24T11:45:47;7.00;;;6.30;;
43682;SDS011;29285;52.128;21.060;2023-04-24T11:50:49;7.10;;;6.50;;
43682;SDS011;29285;52.128;21.060;2023-04-24T11:55:56;9.60;;;6.50;;
43682;SDS011;29285;52.128;21.060;2023-04-24T12:00:57;10.10;;;7.10;;
43682;SDS011;29285;52.128;21.060;2023-04-24T12:06:08;7.00;;;6.00;;
43682;SDS011;29285;52.128;21.060;2023-04-24T12:11:10;8.50;;;6.60;;
43682;SDS011;29285;52.128;21.060;2023-04-24T12:16:12;7.30;;;6.60;;
43682;SDS011;29285;52.128;21.060;2023-04-24T12:21:18;11.00;;;6.90;;
43682;SDS011;29285;52.128;21.060;2023-04-24T12:26:22;6.40;;;5.80;;
43682;SDS011;29285;52.128;21.060;2023-04-24T12:31:23;7.50;;;5.80;;
43682;SDS011;29285;52.128;21.060;2023-04-24T12:36:25;4.60;;;4.00;;
43682;SDS011;29285;52.128;21.060;2023-04-24T12:41:27;6.70;;;3.40;;
43682;SDS011;29285;52.128;21.060;2023-04-24T12:46:31;10.20;;;4.00;;
43682;SDS011;29285;52.128;21.060;2023-04-24T12:51:32;7.50;;;3.50;;
43682;SDS011;29285;52.128;21.060;2023-04-24T12:56:33;5.70;;;4.40;;
43682;SDS011;29285;52.128;21.060;2023-04-24T13:01:34;11.70;;;4.50;;
43682;SDS011;29285;52.128;21.060;2023-04-24T13:06:35;4.40;;;3.60;;
43682;SDS011;29285;52.128;21.060;2023-04-24T13:11:36;3.80;;;3.50;;
43682;SDS011;29285;52.128;21.060;2023-04-24T13:16:37;6.20;;;3.70;;
43682;SDS011;29285;52.128;21.060;2023-04-24T13:21:39;4.40;;;4.00;;
43682;SDS011;29285;52.128;21.060;2023-04-24T13:26:40;4.70;;;4.30;;
43682;SDS011;29285;52.128;21.060;2023-04-24T13:31:41;5.00;;;4.00;;
43682;SDS011;29285;52.128;21.060;2023-04-24T13:36:42;6.60;;;3.60;;
43682;SDS011;29285;52.128;21.060;2023-04-24T13:41:43;3.90;;;3.50;;
43682;SDS011;29285;52.128;21.060;2023-04-24T13:46:46;4.60;;;4.10;;
43682;SDS011;29285;52.128;21.060;2023-04-24T13:51:48;4.70;;;3.70;;
43682;SDS011;29285;52.128;21.060;2023-04-24T13:56:49;6.90;;;4.20;;
43682;SDS011;29285;52.128;21.060;2023-04-24T14:01:51;4.30;;;3.90;;
43682;SDS011;29285;52.128;21.060;2023-04-24T14:06:52;4.90;;;4.40;;
43682;SDS011;29285;52.128;21.060;2023-04-24T14:11:54;6.80;;;4.80;;
43682;SDS011;29285;52.128;21.060;2023-04-24T14:16:55;4.80;;;3.90;;
43682;SDS011;29285;52.128;21.060;2023-04-24T14:21:56;4.50;;;4.10;;
43682;SDS011;29285;52.128;21.060;2023-04-24T14:26:58;6.90;;;3.70;;
43682;SDS011;29285;52.128;21.060;2023-04-24T14:32:00;16.10;;;4.90;;
43682;SDS011;29285;52.128;21.060;2023-04-24T14:37:01;5.90;;;5.10;;
43682;SDS011;29285;52.128;21.060;2023-04-24T14:42:03;4.90;;;4.20;;
43682;SDS011;29285;52.128;21.060;2023-04-24T14:47:04;8.50;;;4.00;;
43682;SDS011;29285;52.128;21.060;2023-04-24T14:52:06;5.60;;;3.50;;
43682;SDS011;29285;52.128;21.060;2023-04-24T14:57:10;5.70;;;4.60;;
43682;SDS011;29285;52.128;21.060;2023-04-24T15:02:11;6.00;;;4.30;;
43682;SDS011;29285;52.128;21.060;2023-04-24T15:07:13;4.30;;;3.90;;
43682;SDS011;29285;52.128;21.060;2023-04-24T15:12:14;4.80;;;4.30;;
43682;SDS011;29285;52.128;21.060;2023-04-24T15:17:15;9.50;;;4.40;;
43682;SDS011;29285;52.128;21.060;2023-04-24T15:22:16;6.40;;;4.50;;
43682;SDS011;29285;52.128;21.060;2023-04-24T15:27:17;4.80;;;4.00;;
43682;SDS011;29285;52.128;21.060;2023-04-24T15:32:19;6.70;;;4.40;;
43682;SDS011;29285;52.128;21.060;2023-04-24T15:37:20;6.70;;;4.30;;
43682;SDS011;29285;52.128;21.060;2023-04-24T15:42:21;8.10;;;4.40;;
43682;SDS011;29285;52.128;21.060;2023-04-24T15:47:22;6.30;;;4.40;;
43682;SDS011;29285;52.128;21.060;2023-04-24T15:52:24;6.60;;;4.20;;
43682;SDS011;29285;52.128;21.060;2023-04-24T15:57:25;6.60;;;4.30;;
43682;SDS011;29285;52.128;21.060;2023-04-24T16:02:27;6.80;;;3.80;;
43682;SDS011;29285;52.128;21.060;2023-04-24T16:07:28;6.30;;;3.70;;
43682;SDS011;29285;52.128;21.060;2023-04-24T16:12:29;6.90;;;4.50;;
43682;SDS011;29285;52.128;21.060;2023-04-24T16:17:30;5.00;;;4.10;;
43682;SDS011;29285;52.128;21.060;2023-04-24T16:22:31;6.50;;;4.20;;
43682;SDS011;29285;52.128;21.060;2023-04-24T16:27:33;9.50;;;4.50;;
43682;SDS011;29285;52.128;21.060;2023-04-24T16:32:34;4.90;;;4.50;;
43682;SDS011;29285;52.128;21.060;2023-04-24T16:37:35;8.20;;;4.70;;
43682;SDS011;29285;52.128;21.060;2023-04-24T16:42:37;8.90;;;4.40;;
43682;SDS011;29285;52.128;21.060;2023-04-24T16:47:38;6.80;;;4.90;;
43682;SDS011;29285;52.128;21.060;2023-04-24T16:52:45;6.80;;;4.80;;
43682;SDS011;29285;52.128;21.060;2023-04-24T16:57:47;10.60;;;5.10;;
43682;SDS011;29285;52.128;21.060;2023-04-24T17:02:48;5.30;;;4.80;;
43682;SDS011;29285;52.128;21.060;2023-04-24T17:07:52;9.30;;;4.80;;
43682;SDS011;29285;52.128;21.060;2023-04-24T17:12:54;8.00;;;5.00;;
43682;SDS011;29285;52.128;21.060;2023-04-24T17:17:56;9.70;;;5.20;;
43682;SDS011;29285;52.128;21.060;2023-04-24T17:22:57;8.90;;;4.70;;
43682;SDS011;29285;52.128;21.060;2023-04-24T17:27:58;7.20;;;5.40;;
43682;SDS011;29285;52.128;21.060;2023-04-24T17:32:59;6.30;;;4.90;;
43682;SDS011;29285;52.128;21.060;2023-04-24T17:38:01;9.40;;;5.30;;
43682;SDS011;29285;52.128;21.060;2023-04-24T17:43:02;10.80;;;5.60;;
43682;SDS011;29285;52.128;21.060;2023-04-24T17:48:03;14.80;;;6.00;;
43682;SDS011;29285;52.128;21.060;2023-04-24T17:53:04;8.20;;;6.00;;
43682;SDS011;29285;52.128;21.060;2023-04-24T17:58:05;9.90;;;5.70;;
43682;SDS011;29285;52.128;21.060;2023-04-24T18:03:07;9.30;;;5.80;;
43682;SDS011;29285;52.128;21.060;2023-04-24T18:08:09;5.90;;;5.30;;
43682;SDS011;29285;52.128;21.060;2023-04-24T18:13:10;6.90;;;5.20;;
43682;SDS011;29285;52.128;21.060;2023-04-24T18:18:11;6.50;;;5.80;;
43682;SDS011;29285;52.128;21.060;2023-04-24T18:23:12;6.60;;;5.70;;
43682;SDS011;29285;52.128;21.060;2023-04-24T18:28:13;11.10;;;5.80;;
43682;SDS011;29285;52.128;21.060;2023-04-24T18:33:14;7.40;;;5.70;;
43682;SDS011;29285;52.128;21.060;2023-04-24T18:38:15;6.90;;;5.60;;
43682;SDS011;29285;52.128;21.060;2023-04-24T18:43:17;9.10;;;5.60;;
43682;SDS011;29285;52.128;21.060;2023-04-24T18:48:18;7.70;;;5.90;;
43682;SDS011;29285;52.128;21.060;2023-04-24T18:53:19;6.80;;;6.00;;
43682;SDS011;29285;52.128;21.060;2023-04-24T18:58:20;8.20;;;5.50;;
43682;SDS011;29285;52.128;21.060;2023-04-24T19:03:22;6.30;;;5.50;;
43682;SDS011;29285;52.128;21.060;2023-04-24T19:08:23;8.20;;;6.50;;
43682;SDS011;29285;52.128;21.060;2023-04-24T19:13:24;9.00;;;5.80;;
43682;SDS011;29285;52.128;21.060;2023-04-24T19:18:25;10.00;;;6.40;;
43682;SDS011;29285;52.128;21.060;2023-04-24T19:23:28;9.40;;;6.00;;
43682;SDS011;29285;52.128;21.060;2023-04-24T19:28:30;10.00;;;6.90;;
43682;SDS011;29285;52.128;21.060;2023-04-24T19:33:31;8.40;;;6.30;;
43682;SDS011;29285;52.128;21.060;2023-04-24T19:38:32;9.20;;;8.10;;
43682;SDS011;29285;52.128;21.060;2023-04-24T19:43:34;10.30;;;7.70;;
43682;SDS011;29285;52.128;21.060;2023-04-24T19:48:35;10.10;;;7.50;;
43682;SDS011;29285;52.128;21.060;2023-04-24T19:53:36;9.60;;;7.10;;
43682;SDS011;29285;52.128;21.060;2023-04-24T19:58:37;9.70;;;7.60;;
43682;SDS011;29285;52.128;21.060;2023-04-24T20:03:38;8.80;;;7.10;;
43682;SDS011;29285;52.128;21.060;2023-04-24T20:08:42;9.20;;;7.60;;
43682;SDS011;29285;52.128;21.060;2023-04-24T20:13:44;12.00;;;8.50;;
43682;SDS011;29285;52.128;21.060;2023-04-24T20:18:45;10.10;;;8.00;;
43682;SDS011;29285;52.128;21.060;2023-04-24T20:23:46;9.40;;;7.70;;
43682;SDS011;29285;52.128;21.060;2023-04-24T20:28:48;10.30;;;7.60;;
43682;SDS011;29285;52.128;21.060;2023-04-24T20:33:49;9.50;;;7.50;;
43682;SDS011;29285;52.128;21.060;2023-04-24T20:38:50;9.80;;;8.60;;
43682;SDS011;29285;52.128;21.060;2023-04-24T20:43:51;12.00;;;8.50;;
43682;SDS011;29285;52.128;21.060;2023-04-24T20:48:52;10.80;;;8.50;;
43682;SDS011;29285;52.128;21.060;2023-04-24T20:53:53;9.20;;;8.10;;
43682;SDS011;29285;52.128;21.060;2023-04-24T20:58:54;11.20;;;9.00;;
43682;SDS011;29285;52.128;21.060;2023-04-24T21:03:56;9.40;;;8.50;;
43682;SDS011;29285;52.128;21.060;2023-04-24T21:08:57;10.10;;;8.40;;
43682;SDS011;29285;52.128;21.060;2023-04-24T21:13:58;14.70;;;8.90;;
43682;SDS011;29285;52.128;21.060;2023-04-24T21:18:59;9.80;;;8.70;;
43682;SDS011;29285;52.128;21.060;2023-04-24T21:24:00;9.60;;;8.10;;
43682;SDS011;29285;52.128;21.060;2023-04-24T21:29:01;12.10;;;9.60;;
43682;SDS011;29285;52.128;21.060;2023-04-24T21:34:02;9.00;;;8.10;;
43682;SDS011;29285;52.128;21.060;2023-04-24T21:39:03;11.20;;;8.50;;
43682;SDS011;29285;52.128;21.060;2023-04-24T21:44:05;9.80;;;8.30;;
43682;SDS011;29285;52.128;21.060;2023-04-24T21:49:06;8.60;;;7.50;;
43682;SDS011;29285;52.128;21.060;2023-04-24T21:54:07;9.00;;;8.00;;
43682;SDS011;29285;52.128;21.060;2023-04-24T21:59:08;11.70;;;8.60;;
43682;SDS011;29285;52.128;21.060;2023-04-24T22:04:10;9.90;;;8.70;;
43682;SDS011;29285;52.128;21.060;2023-04-24T22:09:11;9.00;;;8.00;;
43682;SDS011;29285;52.128;21.060;2023-04-24T22:14:13;10.10;;;8.30;;
43682;SDS011;29285;52.128;21.060;2023-04-24T22:19:14;12.00;;;8.00;;
43682;SDS011;29285;52.128;21.060;2023-04-24T22:24:16;9.70;;;8.70;;
43682;SDS011;29285;52.128;21.060;2023-04-24T22:29:18;9.60;;;7.40;;
43682;SDS011;29285;52.128;21.060;2023-04-24T22:34:19;11.90;;;8.60;;
43682;SDS011;29285;52.128;21.060;2023-04-24T22:39:20;8.50;;;7.70;;
43682;SDS011;29285;52.128;21.060;2023-04-24T22:44:21;9.60;;;8.40;;
43682;SDS011;29285;52.128;21.060;2023-04-24T22:49:22;9.20;;;8.30;;
43682;SDS011;29285;52.128;21.060;2023-04-24T22:54:26;12.20;;;9.70;;
43682;SDS011;29285;52.128;21.060;2023-04-24T22:59:27;8.70;;;7.80;;
43682;SDS011;29285;52.128;21.060;2023-04-24T23:04:28;10.50;;;9.40;;
43682;SDS011;29285;52.128;21.060;2023-04-24T23:09:29;12.70;;;9.30;;
43682;SDS011;29285;52.128;21.060;2023-04-24T23:14:30;13.30;;;8.80;;
43682;SDS011;29285;52.128;21.060;2023-04-24T23:19:33;9.40;;;8.50;;
43682;SDS011;29285;52.128;21.060;2023-04-24T23:24:34;11.80;;;9.00;;
43682;SDS011;29285;52.128;21.060;2023-04-24T23:29:35;10.10;;;8.90;;
43682;SDS011;29285;52.128;21.060;2023-04-24T23:34:36;9.80;;;8.80;;
43682;SDS011;29285;52.128;21.060;2023-04-24T23:39:38;9.00;;;8.10;;
43682;SDS011;29285;52.128;21.060;2023-04-24T23:44:40;10.80;;;9.70;;
43682;SDS011;29285;52.128;21.060;2023-04-24T23:49:44;10.60;;;9.50;;
43682;SDS011;29285;52.128;21.060;2023-04-24T23:54:45;13.20;;;10.20;;
43682;SDS011;29285;52.128;21.060;2023-04-24T23:59:47;9.50;;;8.50;;
